createdAt,value
2023-01-01T00:00:21.106Z,7.70
2023-01-01T00:02:48.217Z,7.74
2023-01-01T00:05:17.523Z,7.76
2023-01-01T00:07:44.497Z,7.77
2023-01-01T00:10:30.071Z,7.77
2023-01-01T00:12:57.921Z,7.78
2023-01-01T00:15:25.689Z,7.77
2023-01-01T00:17:55.269Z,7.82
2023-01-01T00:20:22.431Z,7.92
2023-01-01T00:22:56.912Z,7.97
2023-01-01T00:25:24.820Z,7.98
2023-01-01T00:27:51.893Z,7.96
2023-01-01T00:30:18.944Z,7.89
2023-01-01T00:32:55.548Z,7.80
2023-01-01T00:35:26.914Z,7.69
2023-01-01T00:37:54.214Z,7.58
2023-01-01T00:40:21.139Z,7.46
2023-01-01T00:42:48.307Z,7.38
2023-01-01T00:45:20.915Z,7.34
2023-01-01T00:47:49.353Z,7.26
2023-01-01T00:50:16.362Z,7.17
2023-01-01T00:52:43.425Z,7.08
2023-01-01T00:55:12.938Z,6.98
2023-01-01T00:57:39.885Z,6.89
2023-01-01T01:00:07.695Z,6.79
2023-01-01T01:02:45.875Z,6.70
2023-01-01T01:05:12.997Z,6.66
2023-01-01T01:07:41.009Z,6.67
2023-01-01T01:10:09.778Z,6.66
2023-01-01T01:12:36.840Z,6.63
2023-01-01T01:15:05.157Z,6.59
2023-01-01T01:17:37.454Z,6.54
2023-01-01T01:20:05.396Z,6.49
2023-01-01T01:22:34.684Z,6.42
2023-01-01T01:25:01.687Z,6.35
2023-01-01T01:27:31.878Z,6.33
2023-01-01T01:29:58.974Z,6.35
2023-01-01T01:32:25.852Z,6.35
2023-01-01T01:34:53.058Z,6.32
2023-01-01T01:37:20.788Z,6.26
2023-01-01T01:39:53.425Z,6.20
2023-01-01T01:42:21.077Z,6.15
2023-01-01T01:44:59.163Z,6.09
2023-01-01T01:47:50.955Z,6.09
2023-01-01T01:50:28.686Z,6.11
2023-01-01T01:53:03.395Z,6.08
2023-01-01T01:55:33.069Z,6.03
2023-01-01T01:58:00.038Z,5.97
2023-01-01T02:00:27.945Z,5.91
2023-01-01T02:03:11.697Z,5.84
2023-01-01T02:05:41.254Z,5.78
2023-01-01T02:08:08.297Z,5.79
2023-01-01T02:10:37.597Z,5.83
2023-01-01T02:13:07.004Z,5.82
2023-01-01T02:15:40.534Z,5.78
2023-01-01T02:18:11.053Z,5.72
2023-01-01T02:20:42.475Z,5.68
2023-01-01T02:23:15.768Z,5.62
2023-01-01T02:25:48.710Z,5.56
2023-01-01T02:28:37.000Z,5.53
2023-01-01T02:31:03.988Z,5.55
2023-01-01T02:33:31.110Z,5.52
2023-01-01T02:36:02.888Z,5.47
2023-01-01T02:38:42.710Z,5.41
2023-01-01T02:41:16.305Z,5.35
2023-01-01T02:43:46.420Z,5.29
2023-01-01T02:48:43.530Z,5.27
2023-01-01T02:51:22.925Z,5.32
2023-01-01T02:54:15.677Z,5.33
2023-01-01T02:57:01.975Z,5.28
2023-01-01T02:59:47.766Z,5.22
2023-01-01T03:02:33.755Z,5.15
2023-01-01T03:05:06.648Z,5.09
2023-01-01T03:07:45.866Z,5.10
2023-01-01T03:10:16.083Z,5.14
2023-01-01T03:12:47.039Z,5.13
2023-01-01T03:15:25.265Z,5.12
2023-01-01T03:17:59.146Z,5.11
2023-01-01T03:20:27.852Z,5.12
2023-01-01T03:22:56.698Z,5.15
2023-01-01T03:25:29.600Z,5.20
2023-01-01T03:28:02.693Z,5.26
2023-01-01T03:30:32.708Z,5.28
2023-01-01T03:33:09.287Z,5.26
2023-01-01T03:35:51.180Z,5.22
2023-01-01T03:38:38.090Z,5.16
2023-01-01T03:41:31.108Z,5.09
2023-01-01T03:44:29.826Z,5.01
2023-01-01T03:46:56.925Z,5.02
2023-01-01T03:49:24.068Z,5.07
2023-01-01T03:52:09.513Z,5.07
2023-01-01T03:54:48.029Z,5.04
2023-01-01T03:57:33.691Z,5.00
2023-01-01T04:00:06.315Z,4.96
2023-01-01T04:03:07.417Z,4.93
2023-01-01T04:05:39.536Z,4.88
2023-01-01T04:08:06.640Z,4.90
2023-01-01T04:10:41.136Z,4.95
2023-01-01T04:13:08.522Z,4.96
2023-01-01T04:15:36.226Z,4.95
2023-01-01T04:18:03.735Z,4.93
2023-01-01T04:20:30.796Z,4.92
2023-01-01T04:22:59.169Z,4.90
2023-01-01T04:25:26.440Z,4.98
2023-01-01T04:27:53.461Z,5.09
2023-01-01T04:30:20.421Z,5.17
2023-01-01T04:32:47.451Z,5.21
2023-01-01T04:35:14.793Z,5.28
2023-01-01T04:37:42.980Z,5.37
2023-01-01T04:40:10.711Z,5.53
2023-01-01T04:42:37.589Z,5.71
2023-01-01T04:45:05.169Z,5.87
2023-01-01T04:50:12.752Z,6.10
2023-01-01T04:52:39.803Z,6.17
2023-01-01T04:55:07.391Z,6.30
2023-01-01T04:57:35.842Z,6.45
2023-01-01T05:00:03.812Z,6.54
2023-01-01T05:02:30.747Z,6.62
2023-01-01T05:04:57.803Z,6.68
2023-01-01T05:07:24.768Z,6.74
2023-01-01T05:09:51.814Z,6.86
2023-01-01T05:12:18.740Z,7.02
2023-01-01T05:14:45.784Z,7.17
2023-01-01T05:17:12.740Z,7.28
2023-01-01T05:19:39.722Z,7.36
2023-01-01T05:22:10.871Z,7.46
2023-01-01T05:24:38.357Z,7.62
2023-01-01T05:27:05.664Z,7.78
2023-01-01T05:29:32.570Z,7.90
2023-01-01T05:31:59.456Z,8.00
2023-01-01T05:34:27.393Z,8.08
2023-01-01T05:36:54.431Z,8.14
2023-01-01T05:39:21.343Z,8.24
2023-01-01T05:41:48.328Z,8.37
2023-01-01T05:44:16.827Z,8.45
2023-01-01T05:46:43.751Z,8.48
2023-01-01T05:49:12.016Z,8.49
2023-01-01T05:54:04.891Z,8.48
2023-01-01T05:56:31.893Z,8.46
2023-01-01T05:58:59.193Z,8.48
2023-01-01T06:01:31.117Z,8.55
2023-01-01T06:03:58.644Z,8.59
2023-01-01T06:06:28.972Z,8.57
2023-01-01T06:08:57.503Z,8.51
2023-01-01T06:11:24.673Z,8.41
2023-01-01T06:13:53.329Z,8.27
2023-01-01T06:16:20.549Z,8.10
2023-01-01T06:18:47.450Z,7.94
2023-01-01T06:21:16.016Z,7.79
2023-01-01T06:23:43.484Z,7.69
2023-01-01T06:26:11.346Z,7.65
2023-01-01T06:28:38.514Z,7.59
2023-01-01T06:31:10.321Z,7.54
2023-01-01T06:33:37.408Z,7.49
2023-01-01T06:36:05.731Z,7.47
2023-01-01T06:38:33.648Z,7.49
2023-01-01T06:41:05.724Z,7.61
2023-01-01T06:43:33.679Z,7.81
2023-01-01T06:46:04.555Z,7.96
2023-01-01T06:48:32.720Z,8.10
2023-01-01T06:51:24.997Z,8.22
2023-01-01T06:53:52.288Z,8.39
2023-01-01T06:56:19.555Z,8.60
2023-01-01T06:58:46.743Z,8.84
2023-01-01T07:01:21.250Z,9.04
2023-01-01T07:03:56.347Z,9.22
2023-01-01T07:06:23.902Z,9.36
2023-01-01T07:08:50.842Z,9.47
2023-01-01T07:11:17.898Z,9.56
2023-01-01T07:13:45.483Z,9.67
2023-01-01T07:16:13.904Z,9.86
2023-01-01T07:18:41.702Z,10.09
2023-01-01T07:21:31.691Z,10.28
2023-01-01T07:24:00.207Z,10.44
2023-01-01T07:26:27.724Z,10.53
2023-01-01T07:28:55.225Z,10.61
2023-01-01T07:31:24.653Z,10.70
2023-01-01T07:33:51.597Z,10.79
2023-01-01T07:36:18.493Z,10.86
2023-01-01T07:38:45.521Z,10.92
2023-01-01T07:41:12.464Z,10.93
2023-01-01T07:43:39.350Z,10.92
2023-01-01T07:46:06.489Z,10.93
2023-01-01T07:48:39.809Z,11.01
2023-01-01T07:51:07.343Z,11.15
2023-01-01T07:53:34.460Z,11.26
2023-01-01T07:56:01.522Z,11.43
2023-01-01T07:58:28.653Z,11.63
2023-01-01T08:00:55.811Z,11.91
2023-01-01T08:03:22.763Z,12.21
2023-01-01T08:05:49.801Z,12.50
2023-01-01T08:08:16.706Z,12.80
2023-01-01T08:10:43.589Z,13.08
2023-01-01T08:13:10.729Z,13.34
2023-01-01T08:15:37.824Z,13.60
2023-01-01T08:18:05.275Z,13.82
2023-01-01T08:20:32.692Z,14.02
2023-01-01T08:23:07.128Z,14.23
2023-01-01T08:25:35.211Z,14.40
2023-01-01T08:28:02.279Z,14.59
2023-01-01T08:30:29.254Z,14.80
2023-01-01T08:32:56.336Z,15.02
2023-01-01T08:35:23.158Z,15.22
2023-01-01T08:37:50.015Z,15.38
2023-01-01T08:40:16.952Z,15.53
2023-01-01T08:42:43.896Z,15.65
2023-01-01T08:45:10.942Z,15.78
2023-01-01T08:47:37.796Z,15.91
2023-01-01T08:50:05.314Z,16.03
2023-01-01T08:52:32.111Z,16.16
2023-01-01T08:54:59.143Z,16.32
2023-01-01T08:57:26.284Z,16.46
2023-01-01T08:59:53.157Z,16.58
2023-01-01T09:02:20.141Z,16.69
2023-01-01T09:04:47.222Z,16.79
2023-01-01T09:07:14.365Z,16.88
2023-01-01T09:09:41.418Z,16.95
2023-01-01T09:12:11.327Z,17.02
2023-01-01T09:14:38.376Z,17.12
2023-01-01T09:17:05.322Z,17.28
2023-01-01T09:19:32.203Z,17.47
2023-01-01T09:22:00.521Z,17.71
2023-01-01T09:24:27.597Z,17.95
2023-01-01T09:26:54.596Z,18.19
2023-01-01T09:29:22.005Z,18.41
2023-01-01T09:31:49.947Z,18.67
2023-01-01T09:34:18.308Z,18.91
2023-01-01T09:36:45.621Z,19.19
2023-01-01T09:39:13.454Z,19.44
2023-01-01T09:42:05.389Z,19.65
2023-01-01T09:45:15.955Z,19.85
2023-01-01T09:47:47.527Z,20.06
2023-01-01T09:50:20.117Z,20.25
2023-01-01T09:52:51.990Z,20.38
2023-01-01T09:55:25.041Z,20.51
2023-01-01T09:57:51.872Z,20.65
2023-01-01T10:00:19.468Z,20.77
2023-01-01T10:02:53.863Z,20.91
2023-01-01T10:05:41.631Z,21.05
2023-01-01T10:08:11.102Z,21.25
2023-01-01T10:10:45.107Z,21.45
2023-01-01T10:13:32.012Z,21.63
2023-01-01T10:16:00.584Z,21.81
2023-01-01T10:18:38.505Z,21.94
2023-01-01T10:21:10.971Z,22.08
2023-01-01T10:23:56.468Z,22.19
2023-01-01T10:26:25.342Z,22.27
2023-01-01T10:29:35.302Z,22.31
2023-01-01T10:32:08.975Z,22.30
2023-01-01T10:34:36.145Z,22.25
2023-01-01T10:37:03.098Z,22.24
2023-01-01T10:39:30.077Z,22.28
2023-01-01T10:41:58.522Z,22.37
2023-01-01T10:44:33.556Z,22.52
2023-01-01T10:47:24.773Z,22.70
2023-01-01T10:50:02.895Z,22.90
2023-01-01T10:52:35.874Z,23.06
2023-01-01T10:55:03.018Z,23.16
2023-01-01T10:57:33.387Z,23.27
2023-01-01T11:00:29.871Z,23.37
2023-01-01T11:03:22.007Z,23.49
2023-01-01T11:06:02.988Z,23.58
2023-01-01T11:08:31.157Z,23.66
2023-01-01T11:10:59.168Z,23.64
2023-01-01T11:13:26.889Z,23.51
2023-01-01T11:15:53.847Z,23.30
2023-01-01T11:18:23.133Z,23.07
2023-01-01T11:20:57.758Z,22.82
2023-01-01T11:23:35.962Z,22.61
2023-01-01T11:26:24.715Z,22.38
2023-01-01T11:29:17.600Z,22.11
2023-01-01T11:31:45.835Z,21.85
2023-01-01T11:34:32.856Z,21.67
2023-01-01T11:37:09.286Z,21.54
2023-01-01T11:39:37.554Z,21.42
2023-01-01T11:42:04.667Z,21.40
2023-01-01T11:44:42.456Z,21.43
2023-01-01T11:47:29.784Z,21.50
2023-01-01T11:50:02.865Z,21.60
2023-01-01T11:52:38.629Z,21.66
2023-01-01T11:55:27.376Z,21.64
2023-01-01T11:58:22.383Z,21.60
2023-01-01T12:00:51.300Z,21.54
2023-01-01T12:03:33.551Z,21.48
2023-01-01T12:06:21.001Z,21.43
2023-01-01T12:09:06.325Z,21.37
2023-01-01T12:11:48.573Z,21.32
2023-01-01T12:14:42.142Z,21.27
2023-01-01T12:17:18.203Z,21.20
2023-01-01T12:19:57.125Z,21.11
2023-01-01T12:22:25.973Z,21.01
2023-01-01T12:24:53.190Z,20.94
2023-01-01T12:27:29.212Z,20.86
2023-01-01T12:30:05.513Z,20.81
2023-01-01T12:32:51.591Z,20.75
2023-01-01T12:35:21.598Z,20.71
2023-01-01T12:38:10.969Z,20.72
2023-01-01T12:40:39.903Z,20.76
2023-01-01T12:43:17.277Z,20.80
2023-01-01T12:45:47.093Z,20.86
2023-01-01T12:48:33.050Z,20.96
2023-01-01T12:51:22.937Z,21.04
2023-01-01T12:54:17.116Z,21.08
2023-01-01T12:56:56.048Z,21.13
2023-01-01T12:59:25.267Z,21.15
2023-01-01T13:02:00.731Z,21.14
2023-01-01T13:04:27.877Z,21.15
2023-01-01T13:07:04.422Z,21.13
2023-01-01T13:09:52.140Z,21.11
2023-01-01T13:12:25.555Z,21.06
2023-01-01T13:14:52.904Z,20.95
2023-01-01T13:17:20.761Z,20.76
2023-01-01T13:19:49.215Z,20.56
2023-01-01T13:22:30.925Z,20.34
2023-01-01T13:25:04.215Z,20.08
2023-01-01T13:28:00.704Z,19.83
2023-01-01T13:30:41.739Z,19.57
2023-01-01T13:33:27.201Z,19.33
2023-01-01T13:36:10.538Z,19.13
2023-01-01T13:38:57.069Z,18.93
2023-01-01T13:41:30.242Z,18.73
2023-01-01T13:43:59.906Z,18.54
2023-01-01T13:46:40.845Z,18.38
2023-01-01T13:49:59.092Z,18.21
2023-01-01T13:52:47.573Z,18.03
2023-01-01T13:55:26.752Z,17.87
2023-01-01T13:58:07.616Z,17.70
2023-01-01T14:00:59.408Z,17.55
2023-01-01T14:03:26.645Z,17.39
2023-01-01T14:05:58.672Z,17.27
2023-01-01T14:08:30.552Z,17.17
2023-01-01T14:10:57.974Z,17.06
2023-01-01T14:13:29.885Z,16.95
2023-01-01T14:15:57.936Z,16.83
2023-01-01T14:18:32.999Z,16.72
2023-01-01T14:21:00.399Z,16.60
2023-01-01T14:23:32.112Z,16.48
2023-01-01T14:26:00.452Z,16.38
2023-01-01T14:28:31.822Z,16.27
2023-01-01T14:31:04.296Z,16.18
2023-01-01T14:33:35.705Z,16.07
2023-01-01T14:36:07.094Z,15.98
2023-01-01T14:38:35.238Z,15.85
2023-01-01T14:41:09.989Z,15.72
2023-01-01T14:43:38.437Z,15.57
2023-01-01T14:46:11.322Z,15.41
2023-01-01T14:48:44.040Z,15.26
2023-01-01T14:51:22.104Z,15.10
2023-01-01T14:53:49.071Z,14.93
2023-01-01T14:56:26.371Z,14.80
2023-01-01T14:58:53.872Z,14.68
2023-01-01T15:01:23.768Z,14.55
2023-01-01T15:04:05.050Z,14.43
2023-01-01T15:06:33.067Z,14.30
2023-01-01T15:09:00.038Z,14.17
2023-01-01T15:11:29.343Z,14.03
2023-01-01T15:14:01.433Z,13.88
2023-01-01T15:16:31.121Z,13.75
2023-01-01T15:19:16.354Z,13.62
2023-01-01T15:21:43.393Z,13.48
2023-01-01T15:24:14.740Z,13.40
2023-01-01T15:27:01.171Z,13.38
2023-01-01T15:29:33.457Z,13.41
2023-01-01T15:32:04.995Z,13.43
2023-01-01T15:34:39.184Z,13.47
2023-01-01T15:37:24.149Z,13.51
2023-01-01T15:39:56.987Z,13.56
2023-01-01T15:42:33.704Z,13.61
2023-01-01T15:45:19.700Z,13.66
2023-01-01T15:47:46.845Z,13.71
2023-01-01T15:50:21.306Z,13.74
2023-01-01T15:52:55.177Z,13.76
2023-01-01T15:55:22.942Z,13.78
2023-01-01T15:57:50.545Z,13.79
2023-01-01T16:00:31.685Z,13.79
2023-01-01T16:03:17.855Z,13.78
2023-01-01T16:05:48.597Z,13.76
2023-01-01T16:08:18.027Z,13.73
2023-01-01T16:10:45.989Z,13.67
2023-01-01T16:13:13.332Z,13.60
2023-01-01T16:15:56.365Z,13.53
2023-01-01T16:18:29.242Z,13.45
2023-01-01T16:20:56.468Z,13.36
2023-01-01T16:23:28.447Z,13.27
2023-01-01T16:25:55.424Z,13.17
2023-01-01T16:28:23.894Z,13.05
2023-01-01T16:30:51.179Z,12.96
2023-01-01T16:33:19.380Z,12.86
2023-01-01T16:35:46.490Z,12.77
2023-01-01T16:38:13.305Z,12.68
2023-01-01T16:40:40.217Z,12.58
2023-01-01T16:43:09.842Z,12.49
2023-01-01T16:45:36.784Z,12.41
2023-01-01T16:48:03.865Z,12.34
2023-01-01T16:50:30.762Z,12.26
2023-01-01T16:52:57.690Z,12.22
2023-01-01T16:55:24.604Z,12.19
2023-01-01T16:57:51.562Z,12.20
2023-01-01T17:00:22.600Z,12.22
2023-01-01T17:02:50.243Z,12.23
2023-01-01T17:07:47.796Z,12.32
2023-01-01T17:10:14.672Z,12.32
2023-01-01T17:12:41.992Z,12.34
2023-01-01T17:15:09.554Z,12.36
2023-01-01T17:17:36.618Z,12.36
2023-01-01T17:20:06.475Z,12.35
2023-01-01T17:22:34.632Z,12.33
2023-01-01T17:25:01.827Z,12.35
2023-01-01T17:27:28.708Z,12.37
2023-01-01T17:30:01.014Z,12.40
2023-01-01T17:32:28.044Z,12.45
2023-01-01T17:34:54.938Z,12.51
2023-01-01T17:37:21.923Z,12.58
2023-01-01T17:39:49.133Z,12.65
2023-01-01T17:42:16.144Z,12.73
2023-01-01T17:44:43.125Z,12.83
2023-01-01T17:47:10.065Z,12.91
2023-01-01T17:49:37.117Z,12.99
2023-01-01T17:52:04.486Z,13.07
2023-01-01T17:54:34.282Z,13.14
2023-01-01T17:57:03.941Z,13.22
2023-01-01T17:59:32.508Z,13.29
2023-01-01T18:02:01.157Z,13.33
2023-01-01T18:04:28.268Z,13.36
2023-01-01T18:06:57.511Z,13.38
2023-01-01T18:09:26.205Z,13.39
2023-01-01T18:11:53.690Z,13.38
2023-01-01T18:14:24.604Z,13.36
2023-01-01T18:16:54.267Z,13.35
2023-01-01T18:19:21.723Z,13.35
2023-01-01T18:21:48.801Z,13.36
2023-01-01T18:24:16.153Z,13.37
2023-01-01T18:26:45.256Z,13.39
2023-01-01T18:29:13.126Z,13.40
2023-01-01T18:31:40.416Z,13.40
2023-01-01T18:34:07.833Z,13.38
2023-01-01T18:36:35.616Z,13.36
2023-01-01T18:39:23.208Z,13.34
2023-01-01T18:42:18.126Z,13.33
2023-01-01T18:44:45.032Z,13.35
2023-01-01T18:47:19.574Z,13.37
2023-01-01T18:49:49.096Z,13.38
2023-01-01T18:52:26.848Z,13.42
2023-01-01T18:55:12.213Z,13.45
2023-01-01T18:57:41.695Z,13.47
2023-01-01T19:00:29.619Z,13.48
2023-01-01T19:03:01.556Z,13.49
2023-01-01T19:05:33.181Z,13.52
2023-01-01T19:08:06.606Z,13.54
2023-01-01T19:10:53.088Z,13.55
2023-01-01T19:13:34.875Z,13.58
2023-01-01T19:16:10.957Z,13.59
2023-01-01T19:18:39.660Z,13.60
2023-01-01T19:21:13.492Z,13.62
2023-01-01T19:24:00.858Z,13.64
2023-01-01T19:26:35.420Z,13.64
2023-01-01T19:29:13.044Z,13.64
2023-01-01T19:31:40.090Z,13.63
2023-01-01T19:34:07.231Z,13.63
2023-01-01T19:36:34.259Z,13.63
2023-01-01T19:39:01.231Z,13.62
2023-01-01T19:41:28.080Z,13.62
2023-01-01T19:43:55.035Z,13.63
2023-01-01T19:46:21.957Z,13.62
2023-01-01T19:48:49.462Z,13.59
2023-01-01T19:51:16.732Z,13.59
2023-01-01T19:53:43.644Z,13.58
2023-01-01T19:56:10.876Z,13.57
2023-01-01T19:58:37.957Z,13.56
2023-01-01T20:01:05.157Z,13.56
2023-01-01T20:03:53.570Z,13.55
2023-01-01T20:06:19.186Z,13.53
2023-01-01T20:08:46.035Z,13.52
2023-01-01T20:11:15.525Z,13.52
2023-01-01T20:13:42.550Z,13.53
2023-01-01T20:16:09.599Z,13.54
2023-01-01T20:18:36.678Z,13.55
2023-01-01T20:21:26.500Z,13.57
2023-01-01T20:23:55.463Z,13.62
2023-01-01T20:26:23.844Z,13.65
2023-01-01T20:29:09.498Z,13.67
2023-01-01T20:31:36.928Z,13.67
2023-01-01T20:34:03.915Z,13.67
2023-01-01T20:36:49.341Z,13.68
2023-01-01T20:39:16.368Z,13.70
2023-01-01T20:41:43.307Z,13.72
2023-01-01T20:44:10.210Z,13.76
2023-01-01T20:46:38.569Z,13.79
2023-01-01T20:49:05.444Z,13.81
2023-01-01T20:51:32.540Z,13.81
2023-01-01T20:54:00.477Z,13.81
2023-01-01T20:56:27.666Z,13.83
2023-01-01T20:58:59.557Z,13.85
2023-01-01T21:01:27.369Z,13.87
2023-01-01T21:03:54.691Z,13.87
2023-01-01T21:06:24.482Z,13.87
2023-01-01T21:08:52.353Z,13.86
2023-01-01T21:11:19.283Z,13.85
2023-01-01T21:13:47.246Z,13.84
2023-01-01T21:16:18.376Z,13.83
2023-01-01T21:18:45.698Z,13.80
2023-01-01T21:21:23.072Z,13.77
2023-01-01T21:23:50.673Z,13.74
2023-01-01T21:26:21.460Z,13.71
2023-01-01T21:28:50.502Z,13.67
2023-01-01T21:31:17.437Z,13.65
2023-01-01T21:33:45.237Z,13.61
2023-01-01T21:36:20.734Z,13.57
2023-01-01T21:38:47.829Z,13.54
2023-01-01T21:41:27.128Z,13.54
2023-01-01T21:43:55.312Z,13.53
2023-01-01T21:46:25.203Z,13.52
2023-01-01T21:48:55.597Z,13.51
2023-01-01T21:51:23.508Z,13.49
2023-01-01T21:53:50.519Z,13.47
2023-01-01T21:56:31.302Z,13.45
2023-01-01T21:59:27.598Z,13.44
2023-01-01T22:02:07.448Z,13.42
2023-01-01T22:04:45.387Z,13.38
2023-01-01T22:10:37.018Z,13.27
2023-01-01T22:13:12.567Z,13.23
2023-01-01T22:15:40.915Z,13.20
2023-01-01T22:18:07.743Z,13.16
2023-01-01T22:20:39.895Z,13.11
2023-01-01T22:23:36.750Z,13.06
2023-01-01T22:26:15.596Z,13.00
2023-01-01T22:28:43.680Z,12.93
2023-01-01T22:31:13.530Z,12.85
2023-01-01T22:33:43.083Z,12.77
2023-01-01T22:36:17.735Z,12.66
2023-01-01T22:38:44.651Z,12.56
2023-01-01T22:41:11.796Z,12.50
2023-01-01T22:43:39.889Z,12.47
2023-01-01T22:46:15.976Z,12.45
2023-01-01T22:48:42.916Z,12.44
2023-01-01T22:51:23.058Z,12.42
2023-01-01T22:53:49.932Z,12.39
2023-01-01T22:56:16.938Z,12.37
2023-01-01T22:58:43.850Z,12.37
2023-01-01T23:01:11.184Z,12.37
2023-01-01T23:03:38.105Z,12.38
2023-01-01T23:06:05.226Z,12.38
2023-01-01T23:08:32.062Z,12.38
2023-01-01T23:10:59.302Z,12.35
2023-01-01T23:13:44.827Z,12.30
2023-01-01T23:16:11.774Z,12.22
2023-01-01T23:18:38.684Z,12.15
2023-01-01T23:21:15.057Z,12.06
2023-01-01T23:23:41.962Z,11.98
2023-01-01T23:26:08.985Z,11.89
2023-01-01T23:28:35.849Z,11.80
2023-01-01T23:31:02.783Z,11.71
2023-01-01T23:33:29.801Z,11.65
2023-01-01T23:35:56.722Z,11.61
2023-01-01T23:38:23.593Z,11.65
2023-01-01T23:40:50.393Z,11.75
2023-01-01T23:43:17.176Z,11.83
2023-01-01T23:45:44.276Z,11.90
2023-01-01T23:48:13.427Z,11.95
2023-01-01T23:50:40.254Z,12.00
2023-01-01T23:53:08.894Z,12.03
2023-01-01T23:55:36.287Z,12.06
2023-01-01T23:58:03.841Z,12.08
